sensor_id;sensor_type;location;lat;lon;timestamp;P1;durP1;ratioP1;P2;durP2;ratioP2
7821;SDS011;3956;50.558;9.678;2022-08-25T00:01:53;8.20;;;3.70;;
7821;SDS011;3956;50.558;9.678;2022-08-25T00:04:27;8.63;;;3.37;;
7821;SDS011;3956;50.558;9.678;2022-08-25T00:07:02;6.80;;;3.30;;
7821;SDS011;3956;50.558;9.678;2022-08-25T00:09:32;5.67;;;3.13;;
7821;SDS011;3956;50.558;9.678;2022-08-25T00:12:02;4.67;;;3.20;;
7821;SDS011;3956;50.558;9.678;2022-08-25T00:14:33;8.77;;;3.77;;
7821;SDS011;3956;50.558;9.678;2022-08-25T00:17:04;5.17;;;3.33;;
7821;SDS011;3956;50.558;9.678;2022-08-25T00:19:33;5.90;;;3.27;;
7821;SDS011;3956;50.558;9.678;2022-08-25T00:22:05;6.90;;;3.33;;
7821;SDS011;3956;50.558;9.678;2022-08-25T00:24:35;6.80;;;3.83;;
7821;SDS011;3956;50.558;9.678;2022-08-25T00:27:06;7.43;;;3.77;;
7821;SDS011;3956;50.558;9.678;2022-08-25T00:29:38;8.07;;;3.70;;
7821;SDS011;3956;50.558;9.678;2022-08-25T00:32:08;7.57;;;3.73;;
7821;SDS011;3956;50.558;9.678;2022-08-25T00:34:36;6.10;;;3.50;;
7821;SDS011;3956;50.558;9.678;2022-08-25T00:37:11;6.47;;;3.67;;
7821;SDS011;3956;50.558;9.678;2022-08-25T00:39:41;3.93;;;3.50;;
7821;SDS011;3956;50.558;9.678;2022-08-25T00:42:12;4.70;;;3.20;;
7821;SDS011;3956;50.558;9.678;2022-08-25T00:44:43;4.30;;;3.37;;
7821;SDS011;3956;50.558;9.678;2022-08-25T00:47:12;4.90;;;3.50;;
7821;SDS011;3956;50.558;9.678;2022-08-25T00:49:44;7.57;;;3.80;;
7821;SDS011;3956;50.558;9.678;2022-08-25T00:52:23;7.90;;;3.83;;
7821;SDS011;3956;50.558;9.678;2022-08-25T00:54:55;7.63;;;3.20;;
7821;SDS011;3956;50.558;9.678;2022-08-25T00:57:35;4.60;;;3.53;;
7821;SDS011;3956;50.558;9.678;2022-08-25T01:00:08;6.80;;;3.83;;
7821;SDS011;3956;50.558;9.678;2022-08-25T01:02:41;6.83;;;3.53;;
7821;SDS011;3956;50.558;9.678;2022-08-25T01:05:13;4.47;;;3.50;;
7821;SDS011;3956;50.558;9.678;2022-08-25T01:07:44;6.40;;;3.60;;
7821;SDS011;3956;50.558;9.678;2022-08-25T01:10:18;7.13;;;3.60;;
7821;SDS011;3956;50.558;9.678;2022-08-25T01:12:53;6.37;;;3.63;;
7821;SDS011;3956;50.558;9.678;2022-08-25T01:15:25;6.43;;;3.50;;
7821;SDS011;3956;50.558;9.678;2022-08-25T01:17:55;6.07;;;3.90;;
7821;SDS011;3956;50.558;9.678;2022-08-25T01:20:30;6.50;;;3.73;;
7821;SDS011;3956;50.558;9.678;2022-08-25T01:23:01;5.33;;;3.20;;
7821;SDS011;3956;50.558;9.678;2022-08-25T01:25:35;6.87;;;3.80;;
7821;SDS011;3956;50.558;9.678;2022-08-25T01:28:17;4.83;;;3.70;;
7821;SDS011;3956;50.558;9.678;2022-08-25T01:30:46;6.17;;;3.33;;
7821;SDS011;3956;50.558;9.678;2022-08-25T01:33:16;4.37;;;3.27;;
7821;SDS011;3956;50.558;9.678;2022-08-25T01:35:45;4.57;;;3.27;;
7821;SDS011;3956;50.558;9.678;2022-08-25T01:38:17;4.97;;;3.37;;
7821;SDS011;3956;50.558;9.678;2022-08-25T01:40:48;7.90;;;3.37;;
7821;SDS011;3956;50.558;9.678;2022-08-25T01:43:20;3.47;;;3.17;;
7821;SDS011;3956;50.558;9.678;2022-08-25T01:45:55;3.87;;;3.40;;
7821;SDS011;3956;50.558;9.678;2022-08-25T01:48:27;5.20;;;3.40;;
7821;SDS011;3956;50.558;9.678;2022-08-25T01:50:58;6.90;;;3.43;;
7821;SDS011;3956;50.558;9.678;2022-08-25T01:53:31;6.87;;;3.80;;
7821;SDS011;3956;50.558;9.678;2022-08-25T01:56:06;4.50;;;3.80;;
7821;SDS011;3956;50.558;9.678;2022-08-25T01:58:41;4.97;;;3.63;;
7821;SDS011;3956;50.558;9.678;2022-08-25T02:01:15;5.27;;;4.10;;
7821;SDS011;3956;50.558;9.678;2022-08-25T02:03:47;5.43;;;3.90;;
7821;SDS011;3956;50.558;9.678;2022-08-25T02:06:19;8.87;;;4.03;;
7821;SDS011;3956;50.558;9.678;2022-08-25T02:11:29;9.50;;;4.07;;
7821;SDS011;3956;50.558;9.678;2022-08-25T02:14:02;6.70;;;4.30;;
7821;SDS011;3956;50.558;9.678;2022-08-25T02:16:31;8.03;;;4.53;;
7821;SDS011;3956;50.558;9.678;2022-08-25T02:19:04;4.83;;;4.03;;
7821;SDS011;3956;50.558;9.678;2022-08-25T02:21:35;6.40;;;3.97;;
7821;SDS011;3956;50.558;9.678;2022-08-25T02:24:06;8.23;;;3.60;;
7821;SDS011;3956;50.558;9.678;2022-08-25T02:26:36;6.90;;;4.00;;
7821;SDS011;3956;50.558;9.678;2022-08-25T02:29:05;5.33;;;3.97;;
7821;SDS011;3956;50.558;9.678;2022-08-25T02:31:36;6.60;;;4.00;;
7821;SDS011;3956;50.558;9.678;2022-08-25T02:34:07;6.70;;;3.90;;
7821;SDS011;3956;50.558;9.678;2022-08-25T02:36:43;6.10;;;4.20;;
7821;SDS011;3956;50.558;9.678;2022-08-25T02:39:13;4.83;;;3.73;;
7821;SDS011;3956;50.558;9.678;2022-08-25T02:41:42;5.07;;;4.03;;
7821;SDS011;3956;50.558;9.678;2022-08-25T02:44:12;5.10;;;3.90;;
7821;SDS011;3956;50.558;9.678;2022-08-25T02:46:40;4.50;;;3.60;;
7821;SDS011;3956;50.558;9.678;2022-08-25T02:49:11;9.03;;;4.20;;
7821;SDS011;3956;50.558;9.678;2022-08-25T02:51:39;6.07;;;3.60;;
7821;SDS011;3956;50.558;9.678;2022-08-25T02:54:10;8.27;;;4.07;;
7821;SDS011;3956;50.558;9.678;2022-08-25T02:56:41;5.47;;;4.20;;
7821;SDS011;3956;50.558;9.678;2022-08-25T02:59:11;5.10;;;4.60;;
7821;SDS011;3956;50.558;9.678;2022-08-25T03:01:40;6.33;;;4.17;;
7821;SDS011;3956;50.558;9.678;2022-08-25T03:04:10;8.17;;;4.00;;
7821;SDS011;3956;50.558;9.678;2022-08-25T03:06:39;6.40;;;4.03;;
7821;SDS011;3956;50.558;9.678;2022-08-25T03:09:08;5.07;;;4.10;;
7821;SDS011;3956;50.558;9.678;2022-08-25T03:11:39;5.33;;;4.03;;
7821;SDS011;3956;50.558;9.678;2022-08-25T03:14:15;9.73;;;4.23;;
7821;SDS011;3956;50.558;9.678;2022-08-25T03:16:45;6.60;;;4.27;;
7821;SDS011;3956;50.558;9.678;2022-08-25T03:19:17;6.30;;;4.23;;
7821;SDS011;3956;50.558;9.678;2022-08-25T03:21:47;5.63;;;4.10;;
7821;SDS011;3956;50.558;9.678;2022-08-25T03:24:18;5.73;;;4.07;;
7821;SDS011;3956;50.558;9.678;2022-08-25T03:26:48;9.23;;;4.23;;
7821;SDS011;3956;50.558;9.678;2022-08-25T03:29:24;5.20;;;4.00;;
7821;SDS011;3956;50.558;9.678;2022-08-25T03:31:55;7.30;;;4.60;;
7821;SDS011;3956;50.558;9.678;2022-08-25T03:34:25;9.10;;;4.50;;
7821;SDS011;3956;50.558;9.678;2022-08-25T03:36:56;6.20;;;4.67;;
7821;SDS011;3956;50.558;9.678;2022-08-25T03:39:36;6.50;;;4.60;;
7821;SDS011;3956;50.558;9.678;2022-08-25T03:42:11;6.07;;;4.80;;
7821;SDS011;3956;50.558;9.678;2022-08-25T03:44:47;6.40;;;4.47;;
7821;SDS011;3956;50.558;9.678;2022-08-25T03:47:22;7.77;;;4.30;;
7821;SDS011;3956;50.558;9.678;2022-08-25T03:49:54;9.57;;;5.10;;
7821;SDS011;3956;50.558;9.678;2022-08-25T03:52:24;7.53;;;4.40;;
7821;SDS011;3956;50.558;9.678;2022-08-25T03:54:52;6.47;;;4.60;;
7821;SDS011;3956;50.558;9.678;2022-08-25T03:57:25;7.20;;;4.50;;
7821;SDS011;3956;50.558;9.678;2022-08-25T03:59:54;5.40;;;4.40;;
7821;SDS011;3956;50.558;9.678;2022-08-25T04:02:25;5.93;;;4.63;;
7821;SDS011;3956;50.558;9.678;2022-08-25T04:04:53;5.10;;;4.60;;
7821;SDS011;3956;50.558;9.678;2022-08-25T04:07:21;6.57;;;4.97;;
7821;SDS011;3956;50.558;9.678;2022-08-25T04:09:52;4.20;;;3.80;;
7821;SDS011;3956;50.558;9.678;2022-08-25T04:12:21;11.20;;;4.97;;
7821;SDS011;3956;50.558;9.678;2022-08-25T04:14:54;5.23;;;4.17;;
7821;SDS011;3956;50.558;9.678;2022-08-25T04:17:22;9.20;;;4.57;;
7821;SDS011;3956;50.558;9.678;2022-08-25T04:19:52;7.70;;;4.40;;
7821;SDS011;3956;50.558;9.678;2022-08-25T04:22:20;6.37;;;4.77;;
7821;SDS011;3956;50.558;9.678;2022-08-25T04:24:49;7.70;;;4.60;;
7821;SDS011;3956;50.558;9.678;2022-08-25T04:27:24;6.10;;;4.47;;
7821;SDS011;3956;50.558;9.678;2022-08-25T04:36:16;7.10;;;4.80;;
7821;SDS011;3956;50.558;9.678;2022-08-25T04:38:48;7.43;;;4.50;;
7821;SDS011;3956;50.558;9.678;2022-08-25T04:41:19;7.47;;;4.57;;
7821;SDS011;3956;50.558;9.678;2022-08-25T04:44:12;6.10;;;4.40;;
7821;SDS011;3956;50.558;9.678;2022-08-25T04:46:58;7.90;;;4.97;;
7821;SDS011;3956;50.558;9.678;2022-08-25T04:49:28;9.13;;;5.20;;
7821;SDS011;3956;50.558;9.678;2022-08-25T04:52:03;8.97;;;5.40;;
7821;SDS011;3956;50.558;9.678;2022-08-25T04:54:39;7.73;;;4.90;;
7821;SDS011;3956;50.558;9.678;2022-08-25T04:57:08;6.67;;;4.57;;
7821;SDS011;3956;50.558;9.678;2022-08-25T04:59:38;8.40;;;5.07;;
7821;SDS011;3956;50.558;9.678;2022-08-25T05:02:07;6.67;;;5.30;;
7821;SDS011;3956;50.558;9.678;2022-08-25T05:04:36;6.03;;;4.80;;
7821;SDS011;3956;50.558;9.678;2022-08-25T05:07:10;9.20;;;4.93;;
7821;SDS011;3956;50.558;9.678;2022-08-25T05:09:43;6.73;;;4.77;;
7821;SDS011;3956;50.558;9.678;2022-08-25T05:12:39;13.60;;;9.83;;
7821;SDS011;3956;50.558;9.678;2022-08-25T05:15:16;7.13;;;4.90;;
7821;SDS011;3956;50.558;9.678;2022-08-25T05:18:08;8.43;;;5.03;;
7821;SDS011;3956;50.558;9.678;2022-08-25T05:20:38;6.60;;;4.43;;
7821;SDS011;3956;50.558;9.678;2022-08-25T05:23:10;7.07;;;4.80;;
7821;SDS011;3956;50.558;9.678;2022-08-25T05:25:39;6.83;;;4.90;;
7821;SDS011;3956;50.558;9.678;2022-08-25T05:28:15;7.63;;;5.30;;
7821;SDS011;3956;50.558;9.678;2022-08-25T05:30:47;6.30;;;5.00;;
7821;SDS011;3956;50.558;9.678;2022-08-25T05:33:15;6.80;;;5.10;;
7821;SDS011;3956;50.558;9.678;2022-08-25T05:35:48;8.13;;;5.73;;
7821;SDS011;3956;50.558;9.678;2022-08-25T05:38:28;13.47;;;7.63;;
7821;SDS011;3956;50.558;9.678;2022-08-25T05:41:12;13.70;;;5.47;;
7821;SDS011;3956;50.558;9.678;2022-08-25T05:43:57;6.80;;;5.13;;
7821;SDS011;3956;50.558;9.678;2022-08-25T05:46:55;8.27;;;4.93;;
7821;SDS011;3956;50.558;9.678;2022-08-25T05:49:56;7.87;;;5.47;;
7821;SDS011;3956;50.558;9.678;2022-08-25T05:58:25;8.17;;;5.33;;
7821;SDS011;3956;50.558;9.678;2022-08-25T06:01:08;8.17;;;5.70;;
7821;SDS011;3956;50.558;9.678;2022-08-25T06:04:02;7.53;;;5.80;;
7821;SDS011;3956;50.558;9.678;2022-08-25T06:07:05;6.43;;;5.40;;
7821;SDS011;3956;50.558;9.678;2022-08-25T06:10:26;7.03;;;5.77;;
7821;SDS011;3956;50.558;9.678;2022-08-25T06:12:59;8.17;;;5.50;;
7821;SDS011;3956;50.558;9.678;2022-08-25T06:15:31;9.80;;;5.60;;
7821;SDS011;3956;50.558;9.678;2022-08-25T06:18:00;6.67;;;5.37;;
7821;SDS011;3956;50.558;9.678;2022-08-25T06:20:30;7.17;;;5.33;;
7821;SDS011;3956;50.558;9.678;2022-08-25T06:22:58;7.90;;;5.77;;
7821;SDS011;3956;50.558;9.678;2022-08-25T06:25:40;9.43;;;5.13;;
7821;SDS011;3956;50.558;9.678;2022-08-25T06:28:28;7.27;;;5.20;;
7821;SDS011;3956;50.558;9.678;2022-08-25T06:30:59;8.23;;;5.40;;
7821;SDS011;3956;50.558;9.678;2022-08-25T06:34:05;7.00;;;5.83;;
7821;SDS011;3956;50.558;9.678;2022-08-25T06:37:10;8.53;;;5.30;;
7821;SDS011;3956;50.558;9.678;2022-08-25T06:39:42;8.07;;;5.50;;
7821;SDS011;3956;50.558;9.678;2022-08-25T06:42:10;7.67;;;5.33;;
7821;SDS011;3956;50.558;9.678;2022-08-25T06:48:03;6.83;;;5.47;;
7821;SDS011;3956;50.558;9.678;2022-08-25T06:51:03;9.20;;;5.57;;
7821;SDS011;3956;50.558;9.678;2022-08-25T06:54:09;10.73;;;5.67;;
7821;SDS011;3956;50.558;9.678;2022-08-25T06:56:46;8.30;;;5.60;;
7821;SDS011;3956;50.558;9.678;2022-08-25T06:59:36;8.13;;;5.67;;
7821;SDS011;3956;50.558;9.678;2022-08-25T07:02:08;7.57;;;5.57;;
7821;SDS011;3956;50.558;9.678;2022-08-25T07:04:48;9.13;;;5.77;;
7821;SDS011;3956;50.558;9.678;2022-08-25T07:07:21;9.20;;;5.67;;
7821;SDS011;3956;50.558;9.678;2022-08-25T07:10:09;6.70;;;5.27;;
7821;SDS011;3956;50.558;9.678;2022-08-25T07:12:58;7.13;;;5.33;;
7821;SDS011;3956;50.558;9.678;2022-08-25T07:15:30;7.20;;;4.70;;
7821;SDS011;3956;50.558;9.678;2022-08-25T07:18:10;8.53;;;5.03;;
7821;SDS011;3956;50.558;9.678;2022-08-25T07:21:06;5.77;;;4.80;;
7821;SDS011;3956;50.558;9.678;2022-08-25T07:23:56;5.63;;;4.50;;
7821;SDS011;3956;50.558;9.678;2022-08-25T07:27:04;7.57;;;4.27;;
7821;SDS011;3956;50.558;9.678;2022-08-25T07:29:53;9.10;;;4.57;;
7821;SDS011;3956;50.558;9.678;2022-08-25T07:32:38;6.23;;;4.40;;
7821;SDS011;3956;50.558;9.678;2022-08-25T07:35:11;8.30;;;4.67;;
7821;SDS011;3956;50.558;9.678;2022-08-25T07:37:45;6.77;;;4.10;;
7821;SDS011;3956;50.558;9.678;2022-08-25T07:40:18;7.93;;;4.50;;
7821;SDS011;3956;50.558;9.678;2022-08-25T07:43:29;11.07;;;4.80;;
7821;SDS011;3956;50.558;9.678;2022-08-25T07:46:13;9.63;;;4.40;;
7821;SDS011;3956;50.558;9.678;2022-08-25T07:49:01;6.40;;;4.10;;
7821;SDS011;3956;50.558;9.678;2022-08-25T07:51:44;9.23;;;4.70;;
7821;SDS011;3956;50.558;9.678;2022-08-25T07:54:33;8.40;;;4.60;;
7821;SDS011;3956;50.558;9.678;2022-08-25T07:57:16;7.97;;;5.07;;
7821;SDS011;3956;50.558;9.678;2022-08-25T07:59:44;5.93;;;4.70;;
7821;SDS011;3956;50.558;9.678;2022-08-25T08:02:13;6.80;;;4.73;;
7821;SDS011;3956;50.558;9.678;2022-08-25T08:04:47;6.53;;;4.70;;
7821;SDS011;3956;50.558;9.678;2022-08-25T08:07:55;10.17;;;5.33;;
7821;SDS011;3956;50.558;9.678;2022-08-25T08:11:00;6.77;;;5.43;;
7821;SDS011;3956;50.558;9.678;2022-08-25T08:13:48;6.97;;;6.10;;
7821;SDS011;3956;50.558;9.678;2022-08-25T08:16:20;11.33;;;6.30;;
7821;SDS011;3956;50.558;9.678;2022-08-25T08:18:53;10.30;;;6.53;;
7821;SDS011;3956;50.558;9.678;2022-08-25T08:21:25;9.87;;;6.93;;
7821;SDS011;3956;50.558;9.678;2022-08-25T08:23:58;7.63;;;6.80;;
7821;SDS011;3956;50.558;9.678;2022-08-25T08:26:58;9.30;;;6.63;;
7821;SDS011;3956;50.558;9.678;2022-08-25T08:29:31;10.13;;;6.23;;
7821;SDS011;3956;50.558;9.678;2022-08-25T08:32:01;8.18;;;6.80;;
7821;SDS011;3956;50.558;9.678;2022-08-25T08:34:32;9.50;;;6.40;;
7821;SDS011;3956;50.558;9.678;2022-08-25T08:37:03;9.47;;;6.80;;
7821;SDS011;3956;50.558;9.678;2022-08-25T08:39:45;10.13;;;6.60;;
7821;SDS011;3956;50.558;9.678;2022-08-25T08:42:42;9.43;;;7.20;;
7821;SDS011;3956;50.558;9.678;2022-08-25T08:45:50;8.27;;;6.67;;
7821;SDS011;3956;50.558;9.678;2022-08-25T08:48:36;10.80;;;7.10;;
7821;SDS011;3956;50.558;9.678;2022-08-25T08:51:27;11.13;;;7.00;;
7821;SDS011;3956;50.558;9.678;2022-08-25T08:54:01;8.53;;;7.00;;
7821;SDS011;3956;50.558;9.678;2022-08-25T08:56:41;10.70;;;7.30;;
7821;SDS011;3956;50.558;9.678;2022-08-25T08:59:14;9.67;;;6.50;;
7821;SDS011;3956;50.558;9.678;2022-08-25T09:01:53;14.57;;;7.40;;
7821;SDS011;3956;50.558;9.678;2022-08-25T09:04:28;9.07;;;7.17;;
7821;SDS011;3956;50.558;9.678;2022-08-25T09:07:32;10.33;;;7.13;;
7821;SDS011;3956;50.558;9.678;2022-08-25T09:10:39;9.47;;;7.47;;
7821;SDS011;3956;50.558;9.678;2022-08-25T09:13:55;11.63;;;7.73;;
7821;SDS011;3956;50.558;9.678;2022-08-25T09:16:42;7.20;;;6.50;;
7821;SDS011;3956;50.558;9.678;2022-08-25T09:19:34;10.93;;;6.80;;
7821;SDS011;3956;50.558;9.678;2022-08-25T09:22:29;10.13;;;7.30;;
7821;SDS011;3956;50.558;9.678;2022-08-25T09:25:14;8.73;;;7.10;;
7821;SDS011;3956;50.558;9.678;2022-08-25T09:28:12;8.50;;;6.83;;
7821;SDS011;3956;50.558;9.678;2022-08-25T09:30:49;8.53;;;7.07;;
7821;SDS011;3956;50.558;9.678;2022-08-25T09:33:25;9.80;;;6.47;;
7821;SDS011;3956;50.558;9.678;2022-08-25T09:36:00;10.07;;;6.33;;
7821;SDS011;3956;50.558;9.678;2022-08-25T09:39:07;7.37;;;6.60;;
7821;SDS011;3956;50.558;9.678;2022-08-25T09:45:33;9.40;;;6.00;;
7821;SDS011;3956;50.558;9.678;2022-08-25T09:48:20;9.30;;;6.50;;
7821;SDS011;3956;50.558;9.678;2022-08-25T09:50:53;7.30;;;5.93;;
7821;SDS011;3956;50.558;9.678;2022-08-25T09:54:17;7.60;;;5.60;;
7821;SDS011;3956;50.558;9.678;2022-08-25T09:57:26;7.40;;;6.00;;
7821;SDS011;3956;50.558;9.678;2022-08-25T10:00:11;8.90;;;5.97;;
7821;SDS011;3956;50.558;9.678;2022-08-25T10:02:43;9.23;;;5.30;;
7821;SDS011;3956;50.558;9.678;2022-08-25T10:05:37;8.37;;;5.20;;
7821;SDS011;3956;50.558;9.678;2022-08-25T10:08:31;9.00;;;5.70;;
7821;SDS011;3956;50.558;9.678;2022-08-25T10:11:14;6.93;;;5.43;;
7821;SDS011;3956;50.558;9.678;2022-08-25T10:14:27;8.17;;;5.30;;
7821;SDS011;3956;50.558;9.678;2022-08-25T10:17:12;10.97;;;5.73;;
7821;SDS011;3956;50.558;9.678;2022-08-25T10:20:11;6.97;;;5.70;;
7821;SDS011;3956;50.558;9.678;2022-08-25T10:23:24;8.73;;;5.83;;
7821;SDS011;3956;50.558;9.678;2022-08-25T10:26:14;7.27;;;5.30;;
7821;SDS011;3956;50.558;9.678;2022-08-25T10:29:01;7.97;;;5.70;;
7821;SDS011;3956;50.558;9.678;2022-08-25T10:31:44;5.90;;;4.63;;
7821;SDS011;3956;50.558;9.678;2022-08-25T10:34:26;6.63;;;4.70;;
7821;SDS011;3956;50.558;9.678;2022-08-25T10:37:29;6.67;;;4.73;;
7821;SDS011;3956;50.558;9.678;2022-08-25T10:40:18;5.17;;;4.67;;
7821;SDS011;3956;50.558;9.678;2022-08-25T10:43:16;6.90;;;5.30;;
7821;SDS011;3956;50.558;9.678;2022-08-25T10:46:01;6.80;;;5.07;;
7821;SDS011;3956;50.558;9.678;2022-08-25T10:48:57;7.17;;;6.40;;
7821;SDS011;3956;50.558;9.678;2022-08-25T10:51:52;5.80;;;5.10;;
7821;SDS011;3956;50.558;9.678;2022-08-25T10:54:29;6.73;;;4.90;;
7821;SDS011;3956;50.558;9.678;2022-08-25T10:57:09;7.17;;;5.40;;
7821;SDS011;3956;50.558;9.678;2022-08-25T10:59:57;5.43;;;4.93;;
7821;SDS011;3956;50.558;9.678;2022-08-25T11:02:53;7.73;;;5.23;;
7821;SDS011;3956;50.558;9.678;2022-08-25T11:05:39;5.33;;;4.83;;
7821;SDS011;3956;50.558;9.678;2022-08-25T11:08:11;5.70;;;5.10;;
7821;SDS011;3956;50.558;9.678;2022-08-25T11:10:48;9.93;;;5.73;;
7821;SDS011;3956;50.558;9.678;2022-08-25T11:13:22;7.43;;;5.13;;
7821;SDS011;3956;50.558;9.678;2022-08-25T11:16:05;6.07;;;5.13;;
7821;SDS011;3956;50.558;9.678;2022-08-25T11:18:49;6.33;;;4.53;;
7821;SDS011;3956;50.558;9.678;2022-08-25T11:21:23;5.63;;;4.90;;
7821;SDS011;3956;50.558;9.678;2022-08-25T11:24:05;6.77;;;5.20;;
7821;SDS011;3956;50.558;9.678;2022-08-25T11:26:55;7.67;;;5.20;;
7821;SDS011;3956;50.558;9.678;2022-08-25T11:29:57;8.37;;;6.07;;
7821;SDS011;3956;50.558;9.678;2022-08-25T11:32:34;8.83;;;5.47;;
7821;SDS011;3956;50.558;9.678;2022-08-25T11:35:26;8.43;;;5.53;;
7821;SDS011;3956;50.558;9.678;2022-08-25T11:38:07;8.23;;;5.77;;
7821;SDS011;3956;50.558;9.678;2022-08-25T11:41:16;8.27;;;5.40;;
7821;SDS011;3956;50.558;9.678;2022-08-25T11:44:11;9.10;;;5.47;;
7821;SDS011;3956;50.558;9.678;2022-08-25T12:04:56;5.10;;;4.60;;
7821;SDS011;3956;50.558;9.678;2022-08-25T12:08:09;6.53;;;4.57;;
7821;SDS011;3956;50.558;9.678;2022-08-25T12:11:14;5.03;;;4.30;;
7821;SDS011;3956;50.558;9.678;2022-08-25T12:15:02;4.33;;;3.93;;
7821;SDS011;3956;50.558;9.678;2022-08-25T12:24:48;4.70;;;4.20;;
7821;SDS011;3956;50.558;9.678;2022-08-25T12:27:25;7.03;;;4.53;;
7821;SDS011;3956;50.558;9.678;2022-08-25T12:30:09;6.97;;;4.67;;
7821;SDS011;3956;50.558;9.678;2022-08-25T12:32:58;4.83;;;4.40;;
7821;SDS011;3956;50.558;9.678;2022-08-25T12:35:59;8.17;;;6.33;;
7821;SDS011;3956;50.558;9.678;2022-08-25T12:38:37;5.70;;;4.27;;
7821;SDS011;3956;50.558;9.678;2022-08-25T12:42:06;8.00;;;4.90;;
7821;SDS011;3956;50.558;9.678;2022-08-25T12:49:09;7.20;;;4.73;;
7821;SDS011;3956;50.558;9.678;2022-08-25T12:52:14;4.53;;;4.10;;
7821;SDS011;3956;50.558;9.678;2022-08-25T12:54:46;5.57;;;3.80;;
7821;SDS011;3956;50.558;9.678;2022-08-25T12:57:25;5.13;;;3.70;;
7821;SDS011;3956;50.558;9.678;2022-08-25T13:00:14;7.17;;;3.87;;
7821;SDS011;3956;50.558;9.678;2022-08-25T13:07:04;4.80;;;3.60;;
7821;SDS011;3956;50.558;9.678;2022-08-25T13:13:02;4.43;;;3.73;;
7821;SDS011;3956;50.558;9.678;2022-08-25T13:15:58;3.70;;;3.20;;
7821;SDS011;3956;50.558;9.678;2022-08-25T13:18:37;4.70;;;4.20;;
7821;SDS011;3956;50.558;9.678;2022-08-25T13:21:14;6.20;;;4.00;;
7821;SDS011;3956;50.558;9.678;2022-08-25T13:23:55;6.07;;;4.30;;
7821;SDS011;3956;50.558;9.678;2022-08-25T13:26:49;4.40;;;4.00;;
7821;SDS011;3956;50.558;9.678;2022-08-25T13:29:36;6.40;;;4.10;;
7821;SDS011;3956;50.558;9.678;2022-08-25T13:32:23;5.03;;;4.03;;
7821;SDS011;3956;50.558;9.678;2022-08-25T13:35:10;7.30;;;4.20;;
7821;SDS011;3956;50.558;9.678;2022-08-25T13:37:47;5.67;;;4.07;;
7821;SDS011;3956;50.558;9.678;2022-08-25T13:40:25;7.00;;;4.53;;
7821;SDS011;3956;50.558;9.678;2022-08-25T13:43:20;9.57;;;4.43;;
7821;SDS011;3956;50.558;9.678;2022-08-25T13:46:00;7.10;;;4.33;;
7821;SDS011;3956;50.558;9.678;2022-08-25T13:49:11;7.17;;;4.47;;
7821;SDS011;3956;50.558;9.678;2022-08-25T13:51:56;6.93;;;3.93;;
7821;SDS011;3956;50.558;9.678;2022-08-25T13:54:57;4.20;;;3.80;;
7821;SDS011;3956;50.558;9.678;2022-08-25T13:57:42;4.47;;;4.07;;
7821;SDS011;3956;50.558;9.678;2022-08-25T14:00:25;6.10;;;4.70;;
7821;SDS011;3956;50.558;9.678;2022-08-25T14:02:58;6.63;;;5.60;;
7821;SDS011;3956;50.558;9.678;2022-08-25T14:05:37;4.77;;;4.27;;
7821;SDS011;3956;50.558;9.678;2022-08-25T14:08:27;7.77;;;4.40;;
7821;SDS011;3956;50.558;9.678;2022-08-25T14:11:05;5.70;;;4.80;;
7821;SDS011;3956;50.558;9.678;2022-08-25T14:13:42;6.37;;;4.10;;
7821;SDS011;3956;50.558;9.678;2022-08-25T14:16:17;10.83;;;4.90;;
7821;SDS011;3956;50.558;9.678;2022-08-25T14:18:52;5.50;;;4.60;;
7821;SDS011;3956;50.558;9.678;2022-08-25T14:21:27;7.63;;;4.30;;
7821;SDS011;3956;50.558;9.678;2022-08-25T14:23:59;6.20;;;4.13;;
7821;SDS011;3956;50.558;9.678;2022-08-25T14:26:31;4.97;;;4.07;;
7821;SDS011;3956;50.558;9.678;2022-08-25T14:29:00;5.57;;;3.73;;
7821;SDS011;3956;50.558;9.678;2022-08-25T14:31:41;6.17;;;4.37;;
7821;SDS011;3956;50.558;9.678;2022-08-25T14:34:16;5.67;;;3.60;;
7821;SDS011;3956;50.558;9.678;2022-08-25T14:40:21;5.20;;;4.17;;
7821;SDS011;3956;50.558;9.678;2022-08-25T14:43:26;4.10;;;3.70;;
7821;SDS011;3956;50.558;9.678;2022-08-25T14:46:05;7.37;;;4.23;;
7821;SDS011;3956;50.558;9.678;2022-08-25T14:48:50;7.87;;;4.13;;
7821;SDS011;3956;50.558;9.678;2022-08-25T14:51:55;5.37;;;3.90;;
7821;SDS011;3956;50.558;9.678;2022-08-25T14:54:46;4.07;;;3.63;;
7821;SDS011;3956;50.558;9.678;2022-08-25T15:00:42;13.23;;;11.90;;
7821;SDS011;3956;50.558;9.678;2022-08-25T15:03:56;4.43;;;3.83;;
7821;SDS011;3956;50.558;9.678;2022-08-25T15:06:33;6.17;;;4.37;;
7821;SDS011;3956;50.558;9.678;2022-08-25T15:09:46;6.47;;;4.27;;
7821;SDS011;3956;50.558;9.678;2022-08-25T15:12:21;6.50;;;4.10;;
7821;SDS011;3956;50.558;9.678;2022-08-25T15:15:17;5.07;;;3.97;;
7821;SDS011;3956;50.558;9.678;2022-08-25T15:18:00;5.87;;;3.97;;
7821;SDS011;3956;50.558;9.678;2022-08-25T15:20:31;5.53;;;4.30;;
7821;SDS011;3956;50.558;9.678;2022-08-25T15:23:02;5.77;;;3.80;;
7821;SDS011;3956;50.558;9.678;2022-08-25T15:25:34;5.43;;;4.13;;
7821;SDS011;3956;50.558;9.678;2022-08-25T15:28:24;5.63;;;3.70;;
7821;SDS011;3956;50.558;9.678;2022-08-25T15:31:03;6.87;;;4.60;;
7821;SDS011;3956;50.558;9.678;2022-08-25T15:33:35;5.30;;;3.80;;
7821;SDS011;3956;50.558;9.678;2022-08-25T15:36:22;4.93;;;3.70;;
7821;SDS011;3956;50.558;9.678;2022-08-25T15:38:54;4.27;;;3.87;;
7821;SDS011;3956;50.558;9.678;2022-08-25T15:41:30;4.40;;;4.00;;
7821;SDS011;3956;50.558;9.678;2022-08-25T15:44:03;7.87;;;4.10;;
7821;SDS011;3956;50.558;9.678;2022-08-25T15:46:41;4.10;;;3.70;;
7821;SDS011;3956;50.558;9.678;2022-08-25T15:49:15;8.10;;;4.13;;
7821;SDS011;3956;50.558;9.678;2022-08-25T15:51:50;4.60;;;3.90;;
7821;SDS011;3956;50.558;9.678;2022-08-25T15:54:22;6.63;;;3.73;;
7821;SDS011;3956;50.558;9.678;2022-08-25T15:57:13;5.23;;;4.00;;
7821;SDS011;3956;50.558;9.678;2022-08-25T15:59:50;7.23;;;4.27;;
7821;SDS011;3956;50.558;9.678;2022-08-25T16:02:46;5.70;;;4.27;;
7821;SDS011;3956;50.558;9.678;2022-08-25T16:05:17;6.33;;;4.27;;
7821;SDS011;3956;50.558;9.678;2022-08-25T16:07:52;5.20;;;4.47;;
7821;SDS011;3956;50.558;9.678;2022-08-25T16:10:52;6.10;;;4.30;;
7821;SDS011;3956;50.558;9.678;2022-08-25T16:13:50;5.43;;;3.97;;
7821;SDS011;3956;50.558;9.678;2022-08-25T16:16:24;5.23;;;4.10;;
7821;SDS011;3956;50.558;9.678;2022-08-25T16:18:58;5.37;;;3.83;;
7821;SDS011;3956;50.558;9.678;2022-08-25T16:21:45;4.53;;;4.10;;
7821;SDS011;3956;50.558;9.678;2022-08-25T16:24:21;7.03;;;4.67;;
7821;SDS011;3956;50.558;9.678;2022-08-25T16:27:05;5.50;;;3.73;;
7821;SDS011;3956;50.558;9.678;2022-08-25T16:29:46;5.33;;;3.73;;
7821;SDS011;3956;50.558;9.678;2022-08-25T16:33:07;7.73;;;4.60;;
7821;SDS011;3956;50.558;9.678;2022-08-25T16:39:09;5.67;;;4.17;;
7821;SDS011;3956;50.558;9.678;2022-08-25T16:41:40;5.37;;;4.40;;
7821;SDS011;3956;50.558;9.678;2022-08-25T16:44:45;5.40;;;3.93;;
7821;SDS011;3956;50.558;9.678;2022-08-25T16:47:19;4.07;;;3.70;;
7821;SDS011;3956;50.558;9.678;2022-08-25T16:49:52;4.90;;;4.20;;
7821;SDS011;3956;50.558;9.678;2022-08-25T16:52:33;6.30;;;4.40;;
7821;SDS011;3956;50.558;9.678;2022-08-25T16:56:08;7.67;;;4.20;;
7821;SDS011;3956;50.558;9.678;2022-08-25T16:59:12;6.50;;;4.27;;
7821;SDS011;3956;50.558;9.678;2022-08-25T17:01:46;6.30;;;4.10;;
7821;SDS011;3956;50.558;9.678;2022-08-25T17:04:21;6.17;;;4.47;;
7821;SDS011;3956;50.558;9.678;2022-08-25T17:07:12;4.57;;;4.13;;
7821;SDS011;3956;50.558;9.678;2022-08-25T17:09:53;7.77;;;4.70;;
7821;SDS011;3956;50.558;9.678;2022-08-25T17:12:46;7.37;;;4.30;;
7821;SDS011;3956;50.558;9.678;2022-08-25T17:15:40;6.10;;;4.13;;
7821;SDS011;3956;50.558;9.678;2022-08-25T17:18:41;6.70;;;3.90;;
7821;SDS011;3956;50.558;9.678;2022-08-25T17:21:15;8.77;;;3.90;;
7821;SDS011;3956;50.558;9.678;2022-08-25T17:24:20;4.60;;;3.83;;
7821;SDS011;3956;50.558;9.678;2022-08-25T17:31:16;6.63;;;4.07;;
7821;SDS011;3956;50.558;9.678;2022-08-25T17:33:55;6.13;;;4.17;;
7821;SDS011;3956;50.558;9.678;2022-08-25T17:36:25;6.53;;;4.20;;
7821;SDS011;3956;50.558;9.678;2022-08-25T17:38:55;6.87;;;4.60;;
7821;SDS011;3956;50.558;9.678;2022-08-25T17:41:29;5.47;;;4.53;;
7821;SDS011;3956;50.558;9.678;2022-08-25T17:44:03;5.03;;;4.20;;
7821;SDS011;3956;50.558;9.678;2022-08-25T17:46:36;6.40;;;4.40;;
7821;SDS011;3956;50.558;9.678;2022-08-25T17:49:15;7.53;;;4.53;;
7821;SDS011;3956;50.558;9.678;2022-08-25T17:51:47;7.10;;;4.50;;
7821;SDS011;3956;50.558;9.678;2022-08-25T17:55:16;6.03;;;4.80;;